createdAt,value
2023-03-17T00:00:20.033Z,13.48
2023-03-17T00:02:49.847Z,15.32
2023-03-17T00:05:23.380Z,13.98
2023-03-17T00:07:53.144Z,19.42
2023-03-17T00:10:26.027Z,20.40
2023-03-17T00:12:55.348Z,21.10
2023-03-17T00:15:23.617Z,23.23
2023-03-17T00:17:50.824Z,23.33
2023-03-17T00:20:24.514Z,24.35
2023-03-17T00:22:51.904Z,24.30
2023-03-17T00:25:25.652Z,26.27
2023-03-17T00:27:53.465Z,25.67
2023-03-17T00:30:21.458Z,25.35
2023-03-17T00:32:51.833Z,25.73
2023-03-17T00:35:26.859Z,28.52
2023-03-17T00:37:56.026Z,26.08
2023-03-17T00:40:29.665Z,26.02
2023-03-17T00:42:58.818Z,26.48
2023-03-17T00:45:29.780Z,24.88
2023-03-17T00:47:57.915Z,26.15
2023-03-17T00:50:28.324Z,22.70
2023-03-17T00:52:58.210Z,22.90
2023-03-17T00:55:26.915Z,22.85
2023-03-17T00:57:54.667Z,22.13
2023-03-17T01:00:27.612Z,23.17
2023-03-17T01:02:57.063Z,19.98
2023-03-17T01:05:25.641Z,20.67
2023-03-17T01:07:58.071Z,18.73
2023-03-17T01:10:28.562Z,19.00
2023-03-17T01:12:59.072Z,18.83
2023-03-17T01:15:31.786Z,19.27
2023-03-17T01:18:03.077Z,17.02
2023-03-17T01:20:34.682Z,17.45
2023-03-17T01:23:02.543Z,16.75
2023-03-17T01:25:29.831Z,15.70
2023-03-17T01:27:59.461Z,16.67
2023-03-17T01:30:33.481Z,16.05
2023-03-17T01:33:00.716Z,15.60
2023-03-17T01:35:29.672Z,16.00
2023-03-17T01:37:57.433Z,16.52
2023-03-17T01:40:32.865Z,15.38
2023-03-17T01:43:04.653Z,15.48
2023-03-17T01:46:09.999Z,15.90
2023-03-17T01:48:40.918Z,15.35
2023-03-17T01:51:13.046Z,16.45
2023-03-17T01:53:40.176Z,17.17
2023-03-17T01:56:08.180Z,16.45
2023-03-17T01:58:35.609Z,17.23
2023-03-17T02:01:02.759Z,17.33
2023-03-17T02:03:30.229Z,18.08
2023-03-17T02:05:59.286Z,16.30
2023-03-17T02:08:26.505Z,17.70
2023-03-17T02:10:54.757Z,17.80
2023-03-17T02:13:22.136Z,18.17
2023-03-17T02:15:53.289Z,17.17
2023-03-17T02:18:22.853Z,18.42
2023-03-17T02:20:49.735Z,17.67
2023-03-17T02:23:22.497Z,18.45
2023-03-17T02:25:51.443Z,16.52
2023-03-17T02:28:31.030Z,16.70
2023-03-17T02:30:58.151Z,18.20
2023-03-17T02:33:25.510Z,17.67
2023-03-17T02:35:55.327Z,18.35
2023-03-17T02:38:22.385Z,18.17
2023-03-17T02:40:51.506Z,18.33
2023-03-17T02:43:19.848Z,18.83
2023-03-17T02:45:46.826Z,18.65
2023-03-17T02:48:14.876Z,16.98
2023-03-17T02:50:42.056Z,17.55
2023-03-17T02:53:09.487Z,16.33
2023-03-17T02:55:36.600Z,16.73
2023-03-17T02:58:03.995Z,15.48
2023-03-17T03:00:31.500Z,16.25
2023-03-17T03:02:58.816Z,14.93
2023-03-17T03:05:26.034Z,15.18
2023-03-17T03:07:53.141Z,15.43
2023-03-17T03:10:20.212Z,14.63
2023-03-17T03:12:47.490Z,14.65
2023-03-17T03:15:14.772Z,15.50
2023-03-17T03:17:42.298Z,15.35
2023-03-17T03:20:11.636Z,15.25
2023-03-17T03:22:39.166Z,14.18
2023-03-17T03:25:07.775Z,13.20
2023-03-17T03:27:35.033Z,14.10
2023-03-17T03:30:02.337Z,13.75
2023-03-17T03:32:29.409Z,13.50
2023-03-17T03:34:57.058Z,12.88
2023-03-17T03:37:24.119Z,12.68
2023-03-17T03:39:51.654Z,12.65
2023-03-17T03:42:18.935Z,13.10
2023-03-17T03:44:45.897Z,11.50
2023-03-17T03:47:12.976Z,10.68
2023-03-17T03:49:40.109Z,10.60
2023-03-17T03:52:07.375Z,10.05
2023-03-17T03:54:34.481Z,10.52
2023-03-17T03:57:01.575Z,10.23
2023-03-17T03:59:29.586Z,11.40
2023-03-17T04:01:56.864Z,10.40
2023-03-17T04:04:24.041Z,10.13
2023-03-17T04:06:51.186Z,9.32
2023-03-17T04:09:18.267Z,10.57
2023-03-17T04:11:45.292Z,9.90
2023-03-17T04:14:12.932Z,9.90
2023-03-17T04:16:42.215Z,10.00
2023-03-17T04:19:11.456Z,10.25
2023-03-17T04:21:38.554Z,9.80
2023-03-17T04:24:06.001Z,10.43
2023-03-17T04:26:33.240Z,10.35
2023-03-17T04:29:00.342Z,10.85
2023-03-17T04:31:27.704Z,10.43
2023-03-17T04:33:54.803Z,10.30
2023-03-17T04:36:24.066Z,10.15
2023-03-17T04:38:51.188Z,9.30
2023-03-17T04:41:18.383Z,9.60
2023-03-17T04:43:46.215Z,9.55
2023-03-17T04:46:13.887Z,10.02
2023-03-17T04:48:41.578Z,9.75
2023-03-17T04:51:11.048Z,9.77
2023-03-17T04:56:06.178Z,10.82
2023-03-17T04:58:33.212Z,9.90
2023-03-17T05:01:00.788Z,9.25
2023-03-17T05:03:28.771Z,9.80
2023-03-17T05:05:59.061Z,11.32
2023-03-17T05:08:28.496Z,10.38
2023-03-17T05:10:56.290Z,10.52
2023-03-17T05:13:23.905Z,11.65
2023-03-17T05:15:52.755Z,14.27
2023-03-17T05:18:22.236Z,12.30
2023-03-17T05:20:49.318Z,12.55
2023-03-17T05:23:16.627Z,12.95
2023-03-17T05:25:44.211Z,13.88
2023-03-17T05:28:11.731Z,13.45
2023-03-17T05:30:38.829Z,11.82
2023-03-17T05:33:06.447Z,12.65
2023-03-17T05:35:33.678Z,11.82
2023-03-17T05:38:00.789Z,12.98
2023-03-17T05:40:27.954Z,12.23
2023-03-17T05:42:55.134Z,12.88
2023-03-17T05:45:22.342Z,14.50
2023-03-17T05:47:49.493Z,12.77
2023-03-17T05:50:16.702Z,12.20
2023-03-17T05:52:43.823Z,12.35
2023-03-17T05:55:11.874Z,12.82
2023-03-17T05:57:38.949Z,11.85
2023-03-17T06:00:06.365Z,11.15
2023-03-17T06:02:33.531Z,12.82
2023-03-17T06:05:00.529Z,11.77
2023-03-17T06:07:31.237Z,12.20
2023-03-17T06:10:05.564Z,13.55
2023-03-17T06:12:33.107Z,12.77
2023-03-17T06:15:00.183Z,12.48
2023-03-17T06:17:27.335Z,11.88
2023-03-17T06:19:54.448Z,11.95
2023-03-17T06:22:21.433Z,12.85
2023-03-17T06:24:48.467Z,12.95
2023-03-17T06:27:15.708Z,12.48
2023-03-17T06:29:42.836Z,12.82
2023-03-17T06:32:20.224Z,12.45
2023-03-17T06:34:48.345Z,12.32
2023-03-17T06:37:16.659Z,11.57
2023-03-17T06:39:44.034Z,11.57
2023-03-17T06:42:11.242Z,12.30
2023-03-17T06:44:38.299Z,12.13
2023-03-17T06:47:05.432Z,11.40
2023-03-17T06:49:32.962Z,12.40
2023-03-17T06:52:00.178Z,12.60
2023-03-17T06:54:27.513Z,11.88
2023-03-17T06:56:54.742Z,13.63
2023-03-17T06:59:22.930Z,12.75
2023-03-17T07:01:50.524Z,12.27
2023-03-17T07:04:17.877Z,11.50
2023-03-17T07:06:45.154Z,10.73
2023-03-17T07:09:12.541Z,11.25
2023-03-17T07:11:39.743Z,10.70
2023-03-17T07:14:06.901Z,12.80
2023-03-17T07:16:34.275Z,11.57
2023-03-17T07:19:02.244Z,11.15
2023-03-17T07:21:29.329Z,10.82
2023-03-17T07:23:56.545Z,11.90
2023-03-17T07:26:23.629Z,12.18
2023-03-17T07:28:51.068Z,10.73
2023-03-17T07:31:18.379Z,11.07
2023-03-17T07:33:45.786Z,11.52
2023-03-17T07:36:13.345Z,11.25
2023-03-17T07:38:40.426Z,11.02
2023-03-17T07:41:10.375Z,11.25
2023-03-17T07:43:38.397Z,10.82
2023-03-17T07:46:06.594Z,11.88
2023-03-17T07:48:34.533Z,10.88
2023-03-17T07:51:01.723Z,12.07
2023-03-17T07:53:28.823Z,11.18
2023-03-17T07:55:56.036Z,12.02
2023-03-17T07:58:23.051Z,12.52
2023-03-17T08:00:50.098Z,13.02
2023-03-17T08:03:17.194Z,11.73
2023-03-17T08:05:44.763Z,12.05
2023-03-17T08:08:12.885Z,11.32
2023-03-17T08:10:39.916Z,12.50
2023-03-17T08:13:07.963Z,12.77
2023-03-17T08:15:35.036Z,11.95
2023-03-17T08:18:02.638Z,12.63
2023-03-17T08:20:30.142Z,11.98
2023-03-17T08:22:57.910Z,10.52
2023-03-17T08:25:25.081Z,11.43
2023-03-17T08:27:52.225Z,12.63
2023-03-17T08:30:20.912Z,11.35
2023-03-17T08:32:48.480Z,11.57
2023-03-17T08:35:17.269Z,11.15
2023-03-17T08:37:46.418Z,11.63
2023-03-17T08:40:17.230Z,11.20
2023-03-17T08:42:44.933Z,10.75
2023-03-17T08:45:13.157Z,11.32
2023-03-17T08:47:40.472Z,10.57
2023-03-17T08:50:12.859Z,11.52
2023-03-17T08:52:39.942Z,10.18
2023-03-17T08:55:09.366Z,10.77
2023-03-17T08:57:36.568Z,10.27
2023-03-17T09:00:11.141Z,9.65
2023-03-17T09:02:43.510Z,10.20
2023-03-17T09:05:14.026Z,10.82
2023-03-17T09:07:42.052Z,10.15
2023-03-17T09:10:11.182Z,9.10
2023-03-17T09:12:38.527Z,9.50
2023-03-17T09:15:07.847Z,9.80
2023-03-17T09:17:35.049Z,9.75
2023-03-17T09:20:02.095Z,8.82
2023-03-17T09:22:29.145Z,8.85
2023-03-17T09:24:56.212Z,9.23
2023-03-17T09:27:23.286Z,9.35
2023-03-17T09:29:50.327Z,9.25
2023-03-17T09:32:18.090Z,9.02
2023-03-17T09:34:45.397Z,9.50
2023-03-17T09:37:12.468Z,9.88
2023-03-17T09:39:39.628Z,9.98
2023-03-17T09:42:36.587Z,9.80
2023-03-17T09:45:18.458Z,9.60
2023-03-17T09:48:24.946Z,9.85
2023-03-17T09:50:54.830Z,9.88
2023-03-17T09:53:36.136Z,10.63
2023-03-17T09:56:08.102Z,9.35
2023-03-17T09:58:37.574Z,10.02
2023-03-17T10:01:07.972Z,9.50
2023-03-17T10:06:24.446Z,10.27
2023-03-17T10:09:34.569Z,10.43
2023-03-17T10:12:23.017Z,9.68
2023-03-17T10:15:02.101Z,9.73
2023-03-17T10:17:35.348Z,9.95
2023-03-17T10:20:26.308Z,9.45
2023-03-17T10:23:01.937Z,8.80
2023-03-17T10:25:31.958Z,9.27
2023-03-17T10:28:23.541Z,9.27
2023-03-17T10:30:50.616Z,8.80
2023-03-17T10:33:18.111Z,8.38
2023-03-17T10:35:45.654Z,8.68
2023-03-17T10:38:18.913Z,8.75
2023-03-17T10:40:58.348Z,8.73
2023-03-17T10:43:30.080Z,8.30
2023-03-17T10:46:02.862Z,8.68
2023-03-17T10:48:35.530Z,7.80
2023-03-17T10:51:08.789Z,7.82
2023-03-17T10:53:44.049Z,7.95
2023-03-17T10:56:31.056Z,8.40
2023-03-17T10:59:34.605Z,8.63
2023-03-17T11:02:17.295Z,8.27
2023-03-17T11:04:44.734Z,7.88
2023-03-17T11:07:19.296Z,6.85
2023-03-17T11:09:51.735Z,6.72
2023-03-17T11:12:28.202Z,6.82
2023-03-17T11:15:01.112Z,5.75
2023-03-17T11:17:39.068Z,5.32
2023-03-17T11:20:06.089Z,5.57
2023-03-17T11:22:42.053Z,6.20
2023-03-17T11:25:11.562Z,4.78
2023-03-17T11:28:19.514Z,5.93
2023-03-17T11:31:32.306Z,5.43
2023-03-17T11:34:07.198Z,5.43
2023-03-17T11:36:46.501Z,6.03
2023-03-17T11:39:23.182Z,5.90
2023-03-17T11:42:02.875Z,6.05
2023-03-17T11:44:42.115Z,4.72
2023-03-17T11:47:28.809Z,5.22
2023-03-17T11:50:08.719Z,5.28
2023-03-17T11:53:14.305Z,5.10
2023-03-17T11:55:57.934Z,5.07
2023-03-17T11:58:32.182Z,4.97
2023-03-17T12:01:01.954Z,5.05
2023-03-17T12:03:54.626Z,5.07
2023-03-17T12:06:39.750Z,5.13
2023-03-17T12:09:38.598Z,5.10
2023-03-17T12:12:07.677Z,4.57
2023-03-17T12:14:44.371Z,4.85
2023-03-17T12:17:30.474Z,4.60
2023-03-17T12:20:19.984Z,4.47
2023-03-17T12:23:07.105Z,4.82
2023-03-17T12:26:09.145Z,4.90
2023-03-17T12:28:44.356Z,4.72
2023-03-17T12:31:26.360Z,4.82
2023-03-17T12:34:05.383Z,5.03
2023-03-17T12:36:34.704Z,4.88
2023-03-17T12:39:09.453Z,5.00
2023-03-17T12:42:01.919Z,4.65
2023-03-17T12:45:03.327Z,4.90
2023-03-17T12:47:43.066Z,5.13
2023-03-17T12:50:31.605Z,4.25
2023-03-17T12:53:19.932Z,4.47
2023-03-17T12:55:51.229Z,4.90
2023-03-17T12:58:39.225Z,4.68
2023-03-17T13:01:41.910Z,4.65
2023-03-17T13:04:22.103Z,4.60
2023-03-17T13:07:19.653Z,4.80
2023-03-17T13:10:10.877Z,4.60
2023-03-17T13:12:40.423Z,4.70
2023-03-17T13:15:25.591Z,5.22
2023-03-17T13:18:10.817Z,4.57
2023-03-17T13:20:43.396Z,4.85
2023-03-17T13:23:10.533Z,4.80
2023-03-17T13:25:41.645Z,4.68
2023-03-17T13:28:14.339Z,4.72
2023-03-17T13:31:05.213Z,5.10
2023-03-17T13:33:33.100Z,4.25
2023-03-17T13:36:13.809Z,5.00
2023-03-17T13:39:15.138Z,4.85
2023-03-17T13:42:20.015Z,4.68
2023-03-17T13:45:25.792Z,5.10
2023-03-17T13:47:53.783Z,4.68
2023-03-17T13:50:32.911Z,5.43
2023-03-17T13:53:10.602Z,4.90
2023-03-17T13:55:42.512Z,4.93
2023-03-17T13:58:11.621Z,5.25
2023-03-17T14:00:42.598Z,4.90
2023-03-17T14:05:51.145Z,4.75
2023-03-17T14:08:55.850Z,5.00
2023-03-17T14:11:40.380Z,5.25
2023-03-17T14:14:32.870Z,5.32
2023-03-17T14:17:18.901Z,5.13
2023-03-17T14:20:27.306Z,4.90
2023-03-17T14:23:00.748Z,5.00
2023-03-17T14:25:34.613Z,5.00
2023-03-17T14:28:09.350Z,5.40
2023-03-17T14:30:39.073Z,5.22
2023-03-17T14:33:12.137Z,5.78
2023-03-17T14:35:43.455Z,4.97
2023-03-17T14:38:20.891Z,5.47
2023-03-17T14:40:48.703Z,4.90
2023-03-17T14:43:16.821Z,5.72
2023-03-17T14:46:13.042Z,5.72
2023-03-17T14:48:43.024Z,5.13
2023-03-17T14:51:30.701Z,5.25
2023-03-17T14:54:01.115Z,5.20
2023-03-17T14:59:16.881Z,5.20
2023-03-17T15:01:48.010Z,4.53
2023-03-17T15:04:22.020Z,4.88
2023-03-17T15:06:59.445Z,5.38
2023-03-17T15:09:36.439Z,5.53
2023-03-17T15:12:13.226Z,5.75
2023-03-17T15:14:41.517Z,5.22
2023-03-17T15:17:17.245Z,5.00
2023-03-17T15:19:58.279Z,4.93
2023-03-17T15:22:28.357Z,5.18
2023-03-17T15:25:17.831Z,4.75
2023-03-17T15:27:45.482Z,4.73
2023-03-17T15:30:13.378Z,4.80
2023-03-17T15:32:40.759Z,4.70
2023-03-17T15:35:12.061Z,4.82
2023-03-17T15:37:39.229Z,5.30
2023-03-17T15:40:07.210Z,4.32
2023-03-17T15:42:36.627Z,4.78
2023-03-17T15:45:04.965Z,4.80
2023-03-17T15:47:36.851Z,5.57
2023-03-17T15:50:26.065Z,4.82
2023-03-17T15:52:56.433Z,4.72
2023-03-17T15:57:58.838Z,4.53
2023-03-17T16:00:30.066Z,4.90
2023-03-17T16:03:01.611Z,4.72
2023-03-17T16:05:32.005Z,4.85
2023-03-17T16:10:29.358Z,4.63
2023-03-17T16:12:56.733Z,5.13
2023-03-17T16:15:31.594Z,5.00
2023-03-17T16:18:01.873Z,4.30
2023-03-17T16:23:07.680Z,5.82
2023-03-17T16:25:34.881Z,5.60
2023-03-17T16:28:07.834Z,5.40
2023-03-17T16:30:34.947Z,5.53
2023-03-17T16:33:12.585Z,5.78
2023-03-17T16:35:39.785Z,5.88
2023-03-17T16:38:10.596Z,5.45
2023-03-17T16:40:38.858Z,4.97
2023-03-17T16:43:24.302Z,4.93
2023-03-17T16:45:53.916Z,5.50
2023-03-17T16:48:21.172Z,5.20
2023-03-17T16:50:48.655Z,5.55
2023-03-17T16:53:15.672Z,6.38
2023-03-17T16:55:44.018Z,6.22
2023-03-17T16:58:21.700Z,6.45
2023-03-17T17:00:51.147Z,6.57
2023-03-17T17:03:18.345Z,6.40
2023-03-17T17:05:46.472Z,6.40
2023-03-17T17:08:13.571Z,6.20
2023-03-17T17:10:41.032Z,6.05
2023-03-17T17:13:09.316Z,5.75
2023-03-17T17:15:37.939Z,6.43
2023-03-17T17:18:14.624Z,5.88
2023-03-17T17:20:42.677Z,6.13
2023-03-17T17:23:18.744Z,5.45
2023-03-17T17:25:46.284Z,5.35
2023-03-17T17:28:16.799Z,5.10
2023-03-17T17:30:46.421Z,6.30
2023-03-17T17:33:14.757Z,5.80
2023-03-17T17:35:43.663Z,5.57
2023-03-17T17:38:22.331Z,6.03
2023-03-17T17:40:50.184Z,6.30
2023-03-17T17:43:18.465Z,7.30
2023-03-17T17:45:48.830Z,7.18
2023-03-17T17:50:44.603Z,7.30
2023-03-17T17:53:12.709Z,7.82
2023-03-17T17:55:44.320Z,7.18
2023-03-17T17:58:23.738Z,8.10
2023-03-17T18:00:52.838Z,8.43
2023-03-17T18:03:24.771Z,7.72
2023-03-17T18:05:53.963Z,8.63
2023-03-17T18:08:21.625Z,8.35
2023-03-17T18:10:51.505Z,8.13
2023-03-17T18:15:46.703Z,8.10
2023-03-17T18:18:13.933Z,8.15
2023-03-17T18:20:41.214Z,8.85
2023-03-17T18:23:08.656Z,8.05
2023-03-17T18:25:37.394Z,7.97
2023-03-17T18:28:05.186Z,8.27
2023-03-17T18:30:35.241Z,8.20
2023-03-17T18:33:10.993Z,8.23
2023-03-17T18:35:38.484Z,8.90
2023-03-17T18:38:05.874Z,8.98
2023-03-17T18:40:33.436Z,7.50
2023-03-17T18:43:00.980Z,7.90
2023-03-17T18:45:28.100Z,7.95
2023-03-17T18:47:55.365Z,7.60
2023-03-17T18:50:22.642Z,8.88
2023-03-17T18:52:50.404Z,7.68
2023-03-17T18:55:18.194Z,8.25
2023-03-17T18:57:46.702Z,7.88
2023-03-17T19:00:16.688Z,7.40
2023-03-17T19:02:44.106Z,8.48
2023-03-17T19:05:13.090Z,7.82
2023-03-17T19:07:41.242Z,8.13
2023-03-17T19:10:10.897Z,8.75
2023-03-17T19:12:38.477Z,8.73
2023-03-17T19:15:07.629Z,8.68
2023-03-17T19:17:35.779Z,8.80
2023-03-17T19:20:03.270Z,8.40
2023-03-17T19:22:30.308Z,9.02
2023-03-17T19:24:57.366Z,7.95
2023-03-17T19:27:24.665Z,7.95
2023-03-17T19:29:51.785Z,8.25
2023-03-17T19:32:19.012Z,8.52
2023-03-17T19:34:48.018Z,8.68
2023-03-17T19:37:15.381Z,8.95
2023-03-17T19:39:45.139Z,7.82
2023-03-17T19:42:12.950Z,7.85
2023-03-17T19:44:40.892Z,8.55
2023-03-17T19:47:08.714Z,9.00
2023-03-17T19:49:37.753Z,9.50
2023-03-17T19:52:06.878Z,8.50
2023-03-17T19:54:34.551Z,8.63
2023-03-17T19:57:01.889Z,9.00
2023-03-17T19:59:28.903Z,8.88
2023-03-17T20:01:56.287Z,8.07
2023-03-17T20:04:23.705Z,8.93
2023-03-17T20:06:55.928Z,7.63
2023-03-17T20:09:25.667Z,8.48
2023-03-17T20:11:56.877Z,8.25
2023-03-17T20:14:24.433Z,7.85
2023-03-17T20:16:52.197Z,8.23
2023-03-17T20:19:19.250Z,8.00
2023-03-17T20:21:46.348Z,8.10
2023-03-17T20:24:14.940Z,7.78
2023-03-17T20:26:43.583Z,8.05
2023-03-17T20:29:14.571Z,8.15
2023-03-17T20:31:43.005Z,8.23
2023-03-17T20:34:10.896Z,7.28
2023-03-17T20:36:42.504Z,6.85
2023-03-17T20:39:13.939Z,7.45
2023-03-17T20:41:41.548Z,7.75
2023-03-17T20:44:08.645Z,7.75
2023-03-17T20:46:35.811Z,7.47
2023-03-17T20:49:04.268Z,7.03
2023-03-17T20:51:32.547Z,8.18
2023-03-17T20:54:02.148Z,6.90
2023-03-17T20:56:30.056Z,7.05
2023-03-17T20:58:58.727Z,7.10
2023-03-17T21:01:26.951Z,6.85
2023-03-17T21:03:54.287Z,7.32
2023-03-17T21:06:23.566Z,6.78
2023-03-17T21:11:20.949Z,7.15
2023-03-17T21:13:48.121Z,7.40
2023-03-17T21:16:21.713Z,7.57
2023-03-17T21:18:49.044Z,6.93
2023-03-17T21:21:17.470Z,6.80
2023-03-17T21:23:45.061Z,7.07
2023-03-17T21:26:13.906Z,6.70
2023-03-17T21:28:41.829Z,7.07
2023-03-17T21:31:09.761Z,7.00
2023-03-17T21:33:37.357Z,8.15
2023-03-17T21:36:05.263Z,7.50
2023-03-17T21:38:32.373Z,7.28
2023-03-17T21:41:17.895Z,6.97
2023-03-17T21:43:46.772Z,6.78
2023-03-17T21:46:14.604Z,7.53
2023-03-17T21:48:41.861Z,7.38
2023-03-17T21:51:08.903Z,7.45
2023-03-17T21:53:35.967Z,7.75
2023-03-17T21:56:04.157Z,6.95
2023-03-17T21:58:31.226Z,7.35
2023-03-17T22:01:00.894Z,7.40
2023-03-17T22:03:28.041Z,8.00
2023-03-17T22:05:55.226Z,7.65
2023-03-17T22:08:22.796Z,7.40
2023-03-17T22:10:49.991Z,7.97
2023-03-17T22:13:17.501Z,7.40
2023-03-17T22:15:45.015Z,7.40
2023-03-17T22:18:12.144Z,7.47
2023-03-17T22:20:39.315Z,6.85
2023-03-17T22:23:06.463Z,7.43
2023-03-17T22:25:33.661Z,7.30
2023-03-17T22:28:00.754Z,7.93
2023-03-17T22:30:28.131Z,7.47
2023-03-17T22:32:55.346Z,8.15
2023-03-17T22:35:23.692Z,7.40
2023-03-17T22:37:51.137Z,7.32
2023-03-17T22:40:19.362Z,7.22
2023-03-17T22:42:47.069Z,7.43
2023-03-17T22:45:15.306Z,7.32
2023-03-17T22:47:42.745Z,6.93
2023-03-17T22:50:10.900Z,7.00
2023-03-17T22:52:39.018Z,7.75
2023-03-17T22:55:07.884Z,8.00
2023-03-17T22:57:36.146Z,7.03
2023-03-17T23:00:09.546Z,7.13
2023-03-17T23:02:36.668Z,7.30
2023-03-17T23:05:04.035Z,7.75
2023-03-17T23:07:38.098Z,6.82
2023-03-17T23:10:14.999Z,7.22
2023-03-17T23:12:44.111Z,6.65
2023-03-17T23:15:11.709Z,7.15
2023-03-17T23:17:38.989Z,7.50
2023-03-17T23:20:07.109Z,6.80
2023-03-17T23:22:34.469Z,6.50
2023-03-17T23:25:02.030Z,6.65
2023-03-17T23:27:29.078Z,7.50
2023-03-17T23:29:57.298Z,6.88
2023-03-17T23:32:24.690Z,7.15
2023-03-17T23:34:51.756Z,7.72
2023-03-17T23:37:18.910Z,7.13
2023-03-17T23:39:45.983Z,6.70
2023-03-17T23:42:13.044Z,7.18
2023-03-17T23:44:41.296Z,6.78
2023-03-17T23:47:09.872Z,6.65
2023-03-17T23:49:37.036Z,6.80
2023-03-17T23:52:04.958Z,6.75
2023-03-17T23:54:32.380Z,6.13
2023-03-17T23:57:00.153Z,6.45
2023-03-17T23:59:27.434Z,7.05
